Tiempo atmosférico en la estación meteorológica de Córdoba, Prágdena, Córdoba (275 m.)



Fecha
DESCASC
Temp. máxima en grados centígrados (hora)
DESCASC
Temp. mínima en grados centígrados (hora)
DESCASC
Temp. media en grados centígrados
DESCASC
Racha de viento máxima en m/sg (hora)
DESCASC
Velocidad máxima media en intervalos de 10 minutos(hora)
DESCASC
Precipitaciones diarias en mm
DESCASC
Precipitaciones de 00:00 a 06:00 en mm
DESCASC
Precipitaciones de 06:00 a 12:00 en mm
DESCASC
Precipitaciones de 12:00 a 18:00 en mm
DESCASC
Precipitaciones de 18:00 a 24:00 en mm
DESCASC
18-04-2019 16.3 (13:40) 10.4 (23:50) 13.3 9.17 (03:00) 5.83 (02:10) 3.4 0.4 0.2 2.2 0.6
17-04-2019 23 (14:50) 10.1 (07:50) 16.6 13.89 (20:50) 8.61 (19:10) 0 0 0 0 0
16-04-2019 26.5 (19:10) 10.5 (00:00) 18.5 7.22 (00:20) 4.17 (00:30) 0 0 0 0 0
15-04-2019 26.5 (16:20) 12.6 (00:00) 19.6 14.17 (20:50) 7.5 (17:10) 0 0 0 0 0
14-04-2019 25.5 (17:20) 9.6 (00:00) 17.6 5.83 (15:30) 2.78 (16:50) 0 0 0 0 0
13-04-2019 23.8 (17:50) 7.8 (00:00) 15.8 7.5 (16:30) 3.61 (19:50) 0 0 0 0 0
12-04-2019 22.1 (18:20) 6.3 (00:00) 14.2 6.94 (11:20) 3.61 (11:20) 0 0 0 0 0
11-04-2019 19.9 (18:20) 5.2 (00:00) 12.5 6.39 (22:50) 4.17 (23:10) 0 0 0 0 0
10-04-2019 18 (19:30) 6.9 (00:00) 12.5 8.89 (19:20) 5 (18:00) 0 0 0 0 0
09-04-2019 16.3 (16:50) 8.5 (00:00) 12.4 13.89 (14:40) 7.78 (14:40) 0.4 0 0.4 0 0
08-04-2019 15.9 (15:10) 12.1 (00:00) 14 11.67 (14:50) 6.94 (15:30) 8.8 1.8 2.6 3 1.4
07-04-2019 14.1 (15:10) 7.6 (00:00) 10.9 10.28 (15:50) 6.11 (16:10) 3.8 0.2 0 0 3.6
06-04-2019 12.6 (17:20) 5.8 (00:00) 9.2 15 (15:40) 7.5 (17:20) 7.8 0 0.4 4 3.4
05-04-2019 13.1 (18:40) 7.7 (00:00) 10.4 13.61 (16:20) 8.33 (18:20) 9.4 0 6.8 2.4 0.2
04-04-2019 18.4 (18:40) 4.2 (00:00) 11.3 10 (22:50) 6.11 (18:10) 0 0 0 0 0
03-04-2019 21.8 (17:30) 9.4 (00:00) 15.6 11.94 (16:10) 6.94 (17:10) 0 0 0 0 0
02-04-2019 21.2 (17:40) 8.6 (00:00) 14.9 6.11 (17:20) 3.61 (18:50) 0 0 0 0 0
01-04-2019 19 (14:00) 11.2 (00:00) 15.1 10.28 (14:30) 6.11 (14:20) 1 0.6 0 0.4 0
31-03-2019 17.8 (19:00) 11.5 (00:00) 14.6 6.11 (17:00) 3.89 (17:00) 4.6 0.2 4.4 0 0
30-03-2019 23.9 (17:10) 7.5 (00:00) 15.7 9.17 (18:20) 5 (18:10) 0 0 0 0 0
29-03-2019 22.1 (16:10) 4.2 (00:00) 13.2 8.61 (18:50) 5 (18:50) 0 0 0 0 0
28-03-2019 22 (18:00) 5.5 (00:00) 13.8 8.89 (19:40) 4.44 (15:30) 0 0 0 0 0
27-03-2019 21.2 (17:00) 6.9 (00:00) 14.1 12.5 (10:30) 8.06 (10:20) 0 0 0 0 0
26-03-2019 26.6 (17:00) 9.7 (00:00) 18.2 8.61 (14:10) 4.72 (17:50) 0 0 0 0 0
25-03-2019 23.9 (15:30) 8.2 (00:00) 16 10 (12:30) 6.67 (12:10) 0 0 0 0 0
24-03-2019 20.7 (17:50) 9 (00:00) 14.9 7.22 (00:40) 4.17 (00:40) 0 0 0 0 0
23-03-2019 22 (16:10) 7.8 (00:00) 14.9 13.33 (17:30) 10 (17:20) 0 0 0 0 0
22-03-2019 20.5 (17:50) 4.3 (00:00) 12.4 7.22 (11:00) 4.17 (10:40) 0 0 0 0 0
21-03-2019 18.1 (16:10) 5.4 (00:00) 11.8 9.72 (15:00) 6.11 (11:00) 0 0 0 0 0

Gráficas

Temp. máximas Temp. mínimas Temp. medias Precipitaciones Rachas de viento máximas Velocidades máximas media en intervalos de 10 minutos

Datos horarios

Fecha y hora oficial Temperatura (ºC) Velocidad del viento (km/h) Dirección del viento Racha (km/h) Dirección de racha Precipitación (mm) Presión (hPa) Tendencia (hPa) Humedad (%)
2019-04-19 23:00:00 12.4 8 Este 24 Nordeste 0 -- -- 86
2019-04-19 22:00:00 13.1 15 Nordeste 23 Nordeste 0 -- -- 80
2019-04-19 21:00:00 14 15 Nordeste 23 Nordeste 0 -- -- 74
2019-04-19 20:00:00 15.9 3 Oeste 10 Norte 0 -- -- 71
2019-04-19 19:00:00 14.5 2 Sur 14 Nordeste 0 -- -- 80
2019-04-19 18:00:00 13 6 Sur 31 Este 8.2 -- -- 82
2019-04-19 17:00:00 14.1 24 Este 33 Este 4.6 -- -- 72
2019-04-19 16:00:00 18.2 7 Noroeste 14 Noroeste 0 -- -- 52
2019-04-19 15:00:00 17.8 4 Sur 20 Oeste 0 -- -- 56
2019-04-19 14:00:00 16.7 6 Norte 17 Noroeste 0 -- -- 62
2019-04-19 13:00:00 15.5 3 Oeste 10 Noroeste 0 -- -- 68
2019-04-19 12:00:00 14.6 3 Nordeste 9 Este 0 -- -- 74
2019-04-19 11:00:00 13.1 2 Este 9 Este 0 -- -- 81
2019-04-19 10:00:00 11.6 5 Este 11 Este 0 -- -- 89
2019-04-19 09:00:00 10.5 5 Nordeste 8 Nordeste 0 -- -- 95
2019-04-19 08:00:00 10.2 4 Este 5 Este 0 -- -- 94
2019-04-19 07:00:00 10.3 0 Calma 4 Norte 0 -- -- 95
2019-04-19 06:00:00 10.2 0 Calma 5 Sudoeste 0 -- -- 95
2019-04-19 05:00:00 10.4 3 Oeste 4 Sudoeste 0 -- -- 94
2019-04-19 04:00:00 10.5 0 Calma 6 Sur 0 -- -- 93
2019-04-19 03:00:00 10.5 4 Sur 9 Sudoeste 0 -- -- 92
2019-04-19 02:00:00 10.5 4 Sudoeste 9 Sudoeste 0 -- -- 92
2019-04-19 01:00:00 10.4 5 Sudoeste 10 Sur 0 -- -- 91
2019-04-19 00:00:00 10.4 5 Sur 12 Sur 0 -- -- 91
2019-04-18 23:00:00 11 5 Sudoeste 14 Sur 0 -- -- 88
2019-04-18 22:00:00 11.6 0 Calma 12 Sur 0 -- -- 90
2019-04-18 21:00:00 11.9 8 Sur 27 Sudoeste 0 -- -- 88
2019-04-18 20:00:00 13 12 Sudoeste 24 Sudoeste 0.2 -- -- 82
2019-04-18 19:00:00 13.6 3 Sudeste 8 Este 0.4 -- -- 79
2019-04-18 18:00:00 13.5 3 Sudoeste 17 Norte 0 -- -- 78
2019-04-18 17:00:00 13.5 8 Noroeste 17 Oeste 0 -- -- 80
2019-04-18 16:00:00 13 11 Norte 18 Noroeste 0 -- -- 81
2019-04-18 15:00:00 12.7 11 Sudoeste 31 Sudoeste 2.2 -- -- 92
2019-04-18 14:00:00 16.1 4 Sur 12 Oeste 0 -- -- 66
2019-04-18 13:00:00 14.9 2 Nordeste 15 Este 0 -- -- 74
2019-04-18 12:00:00 14.4 2 Este 6 Sudeste 0.2 -- -- 77
2019-04-18 11:00:00 13.8 2 Sudeste 8 Oeste 0 -- -- 81
2019-04-18 10:00:00 12.5 3 Oeste 5 Oeste 0 -- -- 87
2019-04-18 09:00:00 11.9 0 Calma 5 Nordeste 0 -- -- 90
2019-04-18 08:00:00 12.1 3 Este 9 Sudoeste 0 -- -- 87
2019-04-18 07:00:00 12.4 4 Sur 6 Sur 0 -- -- 84
2019-04-18 06:00:00 12.6 3 Sudoeste 8 Sur 0.2 -- -- 86
2019-04-18 05:00:00 12.7 2 Sudeste 9 Este 0 -- -- 87
2019-04-18 04:00:00 12.9 0 Calma 24 Oeste 0 -- -- 87
2019-04-18 03:00:00 13.2 17 Oeste 33 Oeste 0 -- -- 82
2019-04-18 02:00:00 13 15 Este 25 Nordeste 0.2 -- -- 85
2019-04-18 01:00:00 14.4 7 Este 19 Este 0 -- -- 68
2019-04-18 00:00:00 14.7 5 Sudeste 25 Sur 0 -- -- 63
2019-04-17 23:00:00 15 10 Sudoeste 27 Sudoeste 0 -- -- 61
2019-04-17 22:00:00 15.3 15 Sudoeste 39 Sudoeste 0 -- -- 64
2019-04-17 21:00:00 16.2 29 Oeste 50 Sudoeste 0 -- -- 67
2019-04-17 20:00:00 18.5 18 Sudoeste 46 Sudoeste 0 -- -- 58
2019-04-17 19:00:00 19.6 27 Oeste 42 Oeste 0 -- -- 56
2019-04-17 18:00:00 20.4 11 Sudoeste 39 Sudoeste 0 -- -- 53
2019-04-17 17:00:00 20.5 19 Sudoeste 40 Sudoeste 0 -- -- 50
2019-04-17 16:00:00 20.7 21 Sudoeste 34 Sudoeste 0 -- -- 51
2019-04-17 15:00:00 22.5 20 Oeste 27 Sudoeste 0 -- -- 46
2019-04-17 14:00:00 22.3 9 Oeste 19 Oeste 0 -- -- 41
2019-04-17 13:00:00 21.4 10 Noroeste 18 Oeste 0 -- -- 43
2019-04-17 12:00:00 19.4 8 Norte 13 Norte 0 -- -- 50
2019-04-17 11:00:00 17.3 5 Norte 12 Norte 0 -- -- 58
2019-04-17 10:00:00 14.7 5 Norte 12 Nordeste 0 -- -- 64
2019-04-17 09:00:00 11.9 4 Norte 11 Nordeste 0 -- -- 66
2019-04-17 08:00:00 10.1 6 Norte 12 Nordeste 0 -- -- 68
2019-04-17 07:00:00 11.5 5 Nordeste 13 Nordeste 0 -- -- 62
2019-04-17 06:00:00 11.8 9 Nordeste 13 Nordeste 0 -- -- 61
2019-04-17 05:00:00 12.3 8 Nordeste 15 Nordeste 0 -- -- 60
2019-04-17 04:00:00 12.7 6 Nordeste 9 Nordeste 0 -- -- 61
2019-04-17 03:00:00 13.2 8 Norte 10 Norte 0 -- -- 59
2019-04-17 02:00:00 15 2 Sudoeste 12 Sur 0 -- -- 53
2019-04-17 01:00:00 16.4 6 Sudoeste 17 Sudoeste 0 -- -- 41
2019-04-17 00:00:00 16.7 6 Sudoeste 12 Sudoeste 0 -- -- 40
2019-04-16 23:00:00 18.9 4 Sudoeste 13 Sur 0 -- -- 39
2019-04-16 22:00:00 21.1 5 Sur 22 Sur 0 -- -- 32
2019-04-16 21:00:00 22.8 8 Sur 23 Sur 0 -- -- 29
2019-04-16 20:00:00 26 14 Sudoeste 22 Sudoeste 0 -- -- 26
2019-04-16 19:00:00 26.4 5 Sudoeste 16 Sudoeste 0 -- -- 34
2019-04-16 18:00:00 26 7 Oeste 16 Sudoeste 0 -- -- 36
2019-04-16 17:00:00 25.6 7 Sudoeste 17 Sudeste 0 -- -- 36
2019-04-16 16:00:00 24.3 5 Oeste 16 Sudeste 0 -- -- 36
2019-04-16 15:00:00 23.5 6 Este 23 Nordeste 0 -- -- 37
2019-04-16 14:00:00 21.3 12 Nordeste 22 Nordeste 0 -- -- 46
2019-04-16 13:00:00 19.5 10 Nordeste 22 Nordeste 0 -- -- 58
2019-04-16 12:00:00 17.1 9 Norte 18 Nordeste 0 -- -- 75
2019-04-16 11:00:00 14.6 7 Nordeste 13 Nordeste 0 -- -- 84
2019-04-16 10:00:00 13.1 5 Nordeste 9 Nordeste 0 -- -- 89
2019-04-16 09:00:00 12.3 4 Norte 6 Norte 0 -- -- 93
2019-04-16 08:00:00 11.4 2 Noroeste 5 Norte 0 -- -- 94
2019-04-16 07:00:00 10.9 4 Nordeste 6 Norte 0 -- -- 94
2019-04-16 06:00:00 11.2 0 Calma 6 Este 0 -- -- 90
2019-04-16 05:00:00 12.1 2 Sudoeste 6 Sur 0 -- -- 89
2019-04-16 04:00:00 12.4 4 Sur 11 Sudoeste 0 -- -- 88
2019-04-16 03:00:00 13.2 4 Sur 15 Sur 0 -- -- 85
2019-04-16 02:00:00 14 7 Sudoeste 17 Sudoeste 0 -- -- 84
2019-04-16 01:00:00 14.8 9 Sudoeste 26 Sudoeste 0 -- -- 81
2019-04-16 00:00:00 16 12 Sudoeste 33 Sudoeste 0 -- -- 75
2019-04-15 23:00:00 17 18 Sudoeste 36 Sudoeste 0 -- -- 70
2019-04-15 22:00:00 18 21 Sudoeste 47 Sudoeste 0 -- -- 62
2019-04-15 21:00:00 19.8 26 Sudoeste 51 Sudoeste 0 -- -- 56
2019-04-15 20:00:00 22.7 22 Sudoeste 45 Sudoeste 0 -- -- 47
2019-04-15 19:00:00 24.7 22 Sudoeste 45 Sudoeste 0 -- -- 36
2019-04-15 18:00:00 25.8 20 Sudoeste 50 Sudoeste 0 -- -- 30
2019-04-15 17:00:00 26.2 21 Sudoeste 40 Sudoeste 0 -- -- 26
2019-04-15 16:00:00 26.2 21 Sudoeste 40 Sudoeste 0 -- -- 29
2019-04-15 15:00:00 25.3 17 Sudoeste 33 Sudoeste 0 -- -- 37
2019-04-15 14:00:00 24.1 16 Sudoeste 35 Sudoeste 0 -- -- 39
2019-04-15 13:00:00 22.7 19 Sudoeste 32 Sudoeste 0 -- -- 45
2019-04-15 12:00:00 21.6 14 Sudoeste 26 Sudoeste 0 -- -- 52
2019-04-15 11:00:00 18.2 4 Sudoeste 8 Sur 0 -- -- 65
2019-04-15 10:00:00 16.9 3 Sur 6 Sur 0 -- -- 70
2019-04-15 09:00:00 15 3 Nordeste 15 Nordeste 0 -- -- 76
2019-04-15 08:00:00 12.7 11 Nordeste 14 Nordeste 0 -- -- 82
2019-04-15 07:00:00 14.8 10 Nordeste 14 Nordeste 0 -- -- 73
2019-04-15 06:00:00 14.5 10 Nordeste 16 Nordeste 0 -- -- 75
2019-04-15 05:00:00 14.7 9 Nordeste 11 Nordeste 0 -- -- 74
2019-04-15 04:00:00 15.4 4 Nordeste 9 Nordeste 0 -- -- 71
2019-04-15 03:00:00 16.5 3 Este 4 Este 0 -- -- 68
2019-04-15 02:00:00 17.1 3 Nordeste 4 Este 0 -- -- 65
2019-04-15 01:00:00 17.2 0 Calma 6 Este 0 -- -- 65
2019-04-15 00:00:00 18.6 4 Este 6 Este 0 -- -- 60
2019-04-14 23:00:00 19.7 0 Calma 5 Este 0 -- -- 57
2019-04-14 22:00:00 20.6 0 Calma 6 Oeste 0 -- -- 55
2019-04-14 21:00:00 22 6 Oeste 11 Sudoeste 0 -- -- 51
2019-04-14 20:00:00 24 8 Sudoeste 17 Sudoeste 0 -- -- 44
2019-04-14 19:00:00 24.4 9 Sudoeste 20 Sudoeste 0 -- -- 43
2019-04-14 18:00:00 25.3 10 Sudoeste 18 Sudoeste 0 -- -- 40
2019-04-14 17:00:00 25.1 5 Oeste 20 Noroeste 0 -- -- 40
2019-04-14 16:00:00 24.2 7 Oeste 21 Oeste 0 -- -- 42
2019-04-14 15:00:00 23.7 4 Sudoeste 15 Oeste 0 -- -- 42
2019-04-14 14:00:00 22.3 4 Sudeste 13 Sudoeste 0 -- -- 45
2019-04-14 13:00:00 20.6 3 Noroeste 12 Sudoeste 0 -- -- 50
2019-04-14 12:00:00 18.6 5 Norte 11 Norte 0 -- -- 53
2019-04-14 11:00:00 16.2 4 Norte 10 Norte 0 -- -- 58
2019-04-14 10:00:00 13.9 6 Norte 10 Norte 0 -- -- 68
2019-04-14 09:00:00 10.7 4 Nordeste 9 Norte 0 -- -- 77
2019-04-14 08:00:00 10.1 2 Norte 3 Noroeste 0 -- -- 75
2019-04-14 07:00:00 10.8 0 Calma 5 Este 0 -- -- 71
2019-04-14 06:00:00 11 0 Calma 4 Sur 0 -- -- 73
2019-04-14 05:00:00 11.9 0 Calma 10 Sur 0 -- -- 69
2019-04-14 04:00:00 12.6 8 Sudoeste 12 Sudoeste 0 -- -- 67
2019-04-14 03:00:00 13.1 8 Sudoeste 15 Sudoeste 0 -- -- 66
2019-04-14 02:00:00 13.8 8 Sur 13 Sur 0 -- -- 62
2019-04-14 01:00:00 14.7 9 Sur 14 Sur 0 -- -- 56
2019-04-14 00:00:00 15.7 6 Sur 11 Sur 0 -- -- 52
2019-04-13 23:00:00 16.5 6 Sudoeste 13 Sudoeste 0 -- -- 51
2019-04-13 22:00:00 17.5 9 Sudoeste 15 Sudoeste 0 -- -- 49
2019-04-13 21:00:00 19.9 8 Sudoeste 22 Sudoeste 0 -- -- 43
2019-04-13 20:00:00 22.9 10 Sudoeste 22 Sudoeste 0 -- -- 34
2019-04-13 19:00:00 23.2 12 Sudoeste 25 Sudoeste 0 -- -- 32
2019-04-13 18:00:00 23.6 9 Sudoeste 20 Oeste 0 -- -- 27
2019-04-13 17:00:00 23.2 10 Oeste 27 Oeste 0 -- -- 26
2019-04-13 16:00:00 22.6 6 Sudoeste 20 Sudeste 0 -- -- 28
2019-04-13 15:00:00 21.7 8 Sudoeste 19 Sudoeste 0 -- -- 30
2019-04-13 14:00:00 20.7 4 Sudeste 15 Oeste 0 -- -- 33
2019-04-13 13:00:00 19.9 3 Oeste 11 Sur 0 -- -- 43
2019-04-13 12:00:00 18.1 3 Sudoeste 8 Sudeste 0 -- -- 48
2019-04-13 11:00:00 15.6 3 Sudeste 11 Sur 0 -- -- 56
2019-04-13 10:00:00 12.2 5 Nordeste 8 Nordeste 0 -- -- 70
2019-04-13 09:00:00 9.8 3 Nordeste 4 Este 0 -- -- 78
2019-04-13 08:00:00 8 0 Calma 4 Norte 0 -- -- 81
2019-04-13 07:00:00 8.5 0 Calma 3 Oeste 0 -- -- 79
2019-04-13 06:00:00 8.9 0 Calma 3 Sur 0 -- -- 77
2019-04-13 05:00:00 10.1 3 Sudoeste 10 Sur 0 -- -- 71
2019-04-13 04:00:00 10.1 2 Sudoeste 8 Sudoeste 0 -- -- 70
2019-04-13 03:00:00 11.6 7 Sur 9 Sur 0 -- -- 64
2019-04-13 02:00:00 11.3 2 Sur 7 Sudoeste 0 -- -- 63
2019-04-13 01:00:00 12.1 2 Sur 5 Sudeste 0 -- -- 61
2019-04-13 00:00:00 12.8 4 Noroeste 6 Noroeste 0 -- -- 58
2019-04-12 23:00:00 14.8 0 Calma 4 Oeste 0 -- -- 50
2019-04-12 22:00:00 16.3 3 Sudoeste 5 Sudoeste 0 -- -- 48
2019-04-12 21:00:00 18.8 2 Sudoeste 12 Sudoeste 0 -- -- 42
2019-04-12 20:00:00 21.3 8 Sudoeste 14 Sudoeste 0 -- -- 33
2019-04-12 19:00:00 21.6 3 Norte 14 Sudoeste 0 -- -- 31
2019-04-12 18:00:00 21.8 8 Sudoeste 19 Sudoeste 0 -- -- 30
2019-04-12 17:00:00 21.2 5 Sudoeste 14 Norte 0 -- -- 31
2019-04-12 16:00:00 20.1 4 Este 19 Oeste 0 -- -- 31
2019-04-12 15:00:00 19.8 6 Oeste 21 Noroeste 0 -- -- 30
2019-04-12 14:00:00 19.3 5 Este 14 Este 0 -- -- 35
2019-04-12 13:00:00 17.8 5 Este 16 Norte 0 -- -- 43
2019-04-12 12:00:00 16.3 10 Este 25 Nordeste 0 -- -- 50
2019-04-12 11:00:00 13.8 9 Nordeste 21 Nordeste 0 -- -- 61
2019-04-12 10:00:00 11 6 Nordeste 12 Nordeste 0 -- -- 78
2019-04-12 09:00:00 7.3 5 Nordeste 10 Norte 0 -- -- 88
2019-04-12 08:00:00 6.7 7 Nordeste 9 Nordeste 0 -- -- 88
2019-04-12 07:00:00 6.9 0 Calma 6 Nordeste 0 -- -- 84
2019-04-12 06:00:00 7.6 4 Este 13 Nordeste 0 -- -- 83
2019-04-12 05:00:00 7.4 5 Norte 10 Nordeste 0 -- -- 84
2019-04-12 04:00:00 8.2 3 Nordeste 5 Nordeste 0 -- -- 80
2019-04-12 03:00:00 9.3 3 Nordeste 8 Norte 0 -- -- 77
2019-04-12 02:00:00 9.6 5 Norte 9 Norte 0 -- -- 75
2019-04-12 01:00:00 11.6 0 Calma 16 Este 0 -- -- 67
2019-04-12 00:00:00 12 10 Este 22 Nordeste 0 -- -- 65
2019-04-11 23:00:00 12.1 13 Nordeste 23 Nordeste 0 -- -- 67
2019-04-11 22:00:00 14.3 4 Este 8 Oeste 0 -- -- 56
2019-04-11 21:00:00 16.1 3 Noroeste 14 Sudoeste 0 -- -- 52
2019-04-11 20:00:00 19.1 8 Oeste 18 Oeste 0 -- -- 41
2019-04-11 19:00:00 18.7 5 Noroeste 21 Oeste 0 -- -- 41
2019-04-11 18:00:00 19.5 9 Oeste 22 Noroeste 0 -- -- 40
2019-04-11 17:00:00 18.2 6 Noroeste 19 Este 0 -- -- 41
2019-04-11 16:00:00 18.2 2 Sudoeste 19 Norte 0 -- -- 43
2019-04-11 15:00:00 17.6 6 Norte 17 Norte 0 -- -- 45
2019-04-11 14:00:00 16.5 6 Norte 18 Nordeste 0 -- -- 51
2019-04-11 13:00:00 15.2 6 Nordeste 17 Nordeste 0 -- -- 56
2019-04-11 12:00:00 14.1 10 Nordeste 16 Nordeste 0 -- -- 65
2019-04-11 11:00:00 11.7 3 Norte 9 Nordeste 0 -- -- 76
2019-04-11 10:00:00 9.8 3 Norte 6 Norte 0 -- -- 83
2019-04-11 09:00:00 7.1 0 Calma 5 Norte 0 -- -- 93
2019-04-11 08:00:00 5.3 3 Nordeste 5 Nordeste 0 -- -- 93
2019-04-11 07:00:00 5.6 0 Calma 4 Noroeste 0 -- -- 93
2019-04-11 06:00:00 6.1 0 Calma 3 Sudeste 0 -- -- 90
2019-04-11 05:00:00 6.7 0 Calma 5 Nordeste 0 -- -- 88
2019-04-11 04:00:00 7.8 3 Noroeste 6 Oeste 0 -- -- 84
2019-04-11 03:00:00 8.5 3 Noroeste 10 Nordeste 0 -- -- 82
2019-04-11 02:00:00 10 4 Nordeste 15 Este 0 -- -- 75
2019-04-11 01:00:00 9.9 9 Nordeste 17 Nordeste 0 -- -- 76
2019-04-11 00:00:00 10.5 2 Sudoeste 14 Oeste 0 -- -- 71
2019-04-10 23:00:00 12.1 5 Oeste 15 Oeste 0 -- -- 64
2019-04-10 22:00:00 13.2 6 Noroeste 15 Oeste 0 -- -- 59
2019-04-10 21:00:00 14.7 6 Noroeste 27 Oeste 0 -- -- 55
2019-04-10 20:00:00 17.4 15 Oeste 32 Oeste 0 -- -- 44
2019-04-10 19:00:00 17.7 13 Oeste 26 Sudoeste 0 -- -- 43
2019-04-10 18:00:00 17.4 18 Sudoeste 28 Sudoeste 0 -- -- 52
2019-04-10 17:00:00 15.8 13 Sudoeste 24 Sudoeste 0 -- -- 59
2019-04-10 16:00:00 15.7 11 Sudoeste 23 Sudoeste 0 -- -- 60
2019-04-10 15:00:00 14 11 Sudoeste 21 Sudoeste 0 -- -- 68
2019-04-10 14:00:00 12.9 9 Sudoeste 22 Sudoeste 0 -- -- 72
2019-04-10 13:00:00 12.2 10 Sudoeste 17 Sudoeste 0 -- -- 77
2019-04-10 12:00:00 11.4 8 Sudoeste 17 Oeste 0 -- -- 76
2019-04-10 11:00:00 10.3 7 Sur 12 Sudoeste 0 -- -- 89
2019-04-10 10:00:00 8.7 5 Sur 10 Sudoeste 0 -- -- 92
2019-04-10 09:00:00 7.8 4 Sudoeste 10 Sur 0 -- -- 95
2019-04-10 08:00:00 7.1 5 Sudoeste 9 Sudoeste 0 -- -- 94
2019-04-10 07:00:00 6.9 3 Sudoeste 9 Sur 0 -- -- 93
2019-04-10 06:00:00 7.5 3 Sur 10 Sur 0 -- -- 93
2019-04-10 05:00:00 8.4 8 Sur 10 Sur 0 -- -- 91
2019-04-10 04:00:00 8.7 2 Sudeste 9 Sudoeste 0 -- -- 92
2019-04-10 03:00:00 9.2 8 Oeste 13 Oeste 0 -- -- 91
2019-04-10 02:00:00 9.9 5 Sudoeste 9 Sudoeste 0 -- -- 92
2019-04-10 01:00:00 10.6 5 Sudoeste 12 Sudoeste 0 -- -- 91
2019-04-10 00:00:00 11 5 Sudoeste 15 Sudoeste 0 -- -- 88
2019-04-09 23:00:00 10.9 8 Sudoeste 15 Sudoeste 0 -- -- 88
2019-04-09 22:00:00 12 8 Sudoeste 27 Oeste 0 -- -- 84
2019-04-09 21:00:00 13.4 19 Oeste 34 Oeste 0 -- -- 74
2019-04-09 20:00:00 15.2 23 Sudoeste 40 Sudoeste 0 -- -- 65
2019-04-09 19:00:00 16.2 19 Sudoeste 37 Oeste 0 -- -- 67
2019-04-09 18:00:00 15.4 15 Sudoeste 45 Sudoeste 0 -- -- 69
2019-04-09 17:00:00 15.4 20 Sudoeste 41 Oeste 0 -- -- 71
2019-04-09 16:00:00 15.1 22 Sudoeste 37 Sudoeste 0 -- -- 71
2019-04-09 15:00:00 14.2 17 Sudoeste 50 Oeste 0 -- -- 78
2019-04-09 14:00:00 13.8 19 Sudoeste 32 Sudoeste 0 -- -- 67
2019-04-09 13:00:00 12.7 13 Sudoeste 27 Oeste 0 -- -- 82
2019-04-09 12:00:00 11.3 10 Sudoeste 21 Sudoeste 0.4 -- -- 90
2019-04-09 11:00:00 11.2 9 Sudoeste 19 Sudoeste 0 -- -- 88
2019-04-09 10:00:00 9.6 7 Sudoeste 14 Sur 0 -- -- 94
2019-04-09 09:00:00 8.6 5 Sudoeste 10 Sudoeste 0 -- -- 98
2019-04-09 08:00:00 8.5 3 Sur 7 Sudoeste 0 -- -- 98
2019-04-09 07:00:00 9.1 6 Sur 14 Sudoeste 0 -- -- 98
2019-04-09 06:00:00 9.6 6 Sudoeste 13 Sudoeste 0 -- -- 99
2019-04-09 05:00:00 9.9 7 Sudoeste 16 Sur 0 -- -- 98
2019-04-09 04:00:00 10.2 5 Sur 13 Sudoeste 0 -- -- 98
2019-04-09 03:00:00 10.5 3 Sudoeste 10 Sudoeste 0 -- -- 96
2019-04-09 02:00:00 11 6 Oeste 18 Oeste 0 -- -- 95
2019-04-09 01:00:00 11.9 14 Sudoeste 29 Sudoeste 0 -- -- 94
2019-04-09 00:00:00 12.3 15 Sudoeste 34 Sudoeste 0 -- -- 92
2019-04-08 23:00:00 12.9 17 Sudoeste 32 Sur 0 -- -- 92
2019-04-08 22:00:00 12.4 13 Sudoeste 27 Sudoeste 0 -- -- 96
2019-04-08 21:00:00 12.7 17 Sudoeste 34 Sudoeste 0 -- -- 93
2019-04-08 20:00:00 13.2 19 Sudoeste 36 Sudoeste 0.2 -- -- 95
2019-04-08 19:00:00 13.2 18 Sudoeste 32 Sudoeste 1.2 -- -- 96
2019-04-08 18:00:00 13.7 14 Sudoeste 35 Sur 2 -- -- 95
2019-04-08 17:00:00 14.5 20 Sudoeste 37 Sudoeste 0.6 -- -- 90
2019-04-08 16:00:00 15.1 16 Sudoeste 40 Sudoeste 0 -- -- 90
2019-04-08 15:00:00 15.7 22 Sudoeste 42 Sudoeste 0 -- -- 85
2019-04-08 14:00:00 14.3 19 Sudoeste 41 Sudoeste 0.2 -- -- 92
2019-04-08 13:00:00 13.6 13 Sudoeste 32 Sudoeste 0.2 -- -- 95
2019-04-08 12:00:00 13.2 12 Sudoeste 30 Sudoeste 2 -- -- 96
2019-04-08 11:00:00 13.9 10 Sudoeste 28 Sudoeste 0 -- -- 91
2019-04-08 10:00:00 13 10 Sudoeste 24 Sudoeste 0.2 -- -- 97
2019-04-08 09:00:00 12.3 12 Sudoeste 24 Sudoeste 0.4 -- -- 97
2019-04-08 08:00:00 12.4 14 Sudoeste 27 Sudoeste 0 -- -- 97
2019-04-08 07:00:00 12.5 14 Sudoeste 28 Sudoeste 0 -- -- 97
2019-04-08 06:00:00 12.6 13 Sudoeste 31 Sudoeste 0 -- -- 97
2019-04-08 05:00:00 12.7 14 Sudoeste 28 Sudoeste 0 -- -- 97
2019-04-08 04:00:00 12.7 10 Sudoeste 18 Sudoeste 1.6 -- -- 98
2019-04-08 03:00:00 12.7 11 Sudoeste 23 Sudoeste 0 -- -- 98
2019-04-08 02:00:00 12.9 13 Sudoeste 23 Sudoeste 0.2 -- -- 98
2019-04-08 01:00:00 12.6 9 Sudoeste 16 Sudoeste 0 -- -- 98
2019-04-08 00:00:00 12.1 5 Sur 10 Sur 0 -- -- 97
2019-04-07 23:00:00 12.1 2 Sudoeste 6 Sudoeste 0.2 -- -- 97
2019-04-07 22:00:00 12 2 Sur 5 Sur 2.4 -- -- 97
2019-04-07 21:00:00 12 3 Sur 9 Sudeste 0.4 -- -- 96
2019-04-07 20:00:00 12 4 Sur 17 Sudoeste 0.4 -- -- 95
2019-04-07 19:00:00 12.3 10 Sudoeste 23 Sudoeste 0.2 -- -- 93
2019-04-07 18:00:00 12.6 8 Sudoeste 27 Sudoeste 0 -- -- 89
2019-04-07 17:00:00 13.5 18 Sudoeste 33 Sudoeste 0 -- -- 76
2019-04-07 16:00:00 13.8 21 Sudoeste 37 Oeste 0 -- -- 69
2019-04-07 15:00:00 14 18 Sudoeste 32 Oeste 0 -- -- 68
2019-04-07 14:00:00 13.8 19 Sudoeste 30 Oeste 0 -- -- 63
2019-04-07 13:00:00 12.6 14 Oeste 27 Sudoeste 0 -- -- 73
2019-04-07 12:00:00 12.2 11 Sudoeste 23 Sudoeste 0 -- -- 78
2019-04-07 11:00:00 10.9 12 Sudoeste 23 Sudoeste 0 -- -- 85
2019-04-07 10:00:00 9.4 11 Sudoeste 26 Sudoeste 0 -- -- 93
2019-04-07 09:00:00 8.6 7 Sur 18 Sudoeste 0 -- -- 94
2019-04-07 08:00:00 8.4 12 Sudoeste 27 Sudoeste 0 -- -- 93
2019-04-07 07:00:00 8.1 11 Sudoeste 23 Sudoeste 0 -- -- 95
2019-04-07 06:00:00 8.1 12 Sudoeste 28 Sudoeste 0 -- -- 94
2019-04-07 05:00:00 8.3 15 Sudoeste 28 Sudoeste 0 -- -- 92
2019-04-07 04:00:00 8.5 13 Sudoeste 28 Sudoeste 0 -- -- 91
2019-04-07 03:00:00 8.4 12 Sudoeste 21 Sudoeste 0.2 -- -- 94
2019-04-07 02:00:00 7.9 10 Sudoeste 17 Sudoeste 0 -- -- 96
2019-04-07 01:00:00 7.6 5 Sudoeste 14 Sudoeste 0 -- -- 95
2019-04-07 00:00:00 7.6 5 Sudoeste 17 Sur 0 -- -- 94
2019-04-06 23:00:00 8.1 5 Sudoeste 12 Sudoeste 0 -- -- 93
2019-04-06 22:00:00 8.9 8 Sudoeste 23 Sudoeste 0 -- -- 89
2019-04-06 21:00:00 9.4 7 Sudoeste 19 Sur 0 -- -- 90
2019-04-06 20:00:00 9.9 7 Sudoeste 15 Noroeste 0.2 -- -- 91
2019-04-06 19:00:00 9.3 12 Oeste 32 Sudoeste 3.2 -- -- 90
2019-04-06 18:00:00 11 21 Sudoeste 49 Sudoeste 0 -- -- 78
2019-04-06 17:00:00 12 23 Sudoeste 39 Sudoeste 0 -- -- 76
2019-04-06 16:00:00 8.1 18 Sudoeste 54 Sudoeste 0.4 -- -- 91
2019-04-06 15:00:00 9.6 15 Sudoeste 36 Oeste 3.2 -- -- 90
2019-04-06 14:00:00 10.3 20 Oeste 37 Sudoeste 0.2 -- -- 84
2019-04-06 13:00:00 10.9 18 Sudoeste 33 Sudoeste 0.2 -- -- 84
2019-04-06 12:00:00 9.2 14 Sudoeste 28 Sudoeste 0.2 -- -- 92
2019-04-06 11:00:00 8.2 12 Sudoeste 28 Sudoeste 0.2 -- -- 93
2019-04-06 10:00:00 8 14 Sudoeste 25 Sudoeste 0 -- -- 92
2019-04-06 09:00:00 6.7 9 Sudoeste 19 Sur 0 -- -- 96
2019-04-06 08:00:00 5.8 12 Sur 18 Sudoeste 0 -- -- 96
2019-04-06 07:00:00 5.8 3 Sur 12 Sur 0 -- -- 94
2019-04-06 06:00:00 6.4 7 Sudoeste 16 Sudoeste 0 -- -- 95
2019-04-06 05:00:00 6.3 8 Sudoeste 20 Sudoeste 0 -- -- 95
2019-04-06 04:00:00 6.6 8 Sudoeste 20 Sudoeste 0 -- -- 94
2019-04-06 03:00:00 6.8 10 Sudoeste 23 Sudoeste 0 -- -- 93
2019-04-06 02:00:00 7 13 Sudoeste 24 Sudoeste 0 -- -- 93
2019-04-06 01:00:00 7.3 13 Sudoeste 24 Sudoeste 0 -- -- 92
2019-04-06 00:00:00 7.7 10 Sudoeste 22 Sudoeste 0 -- -- 90
2019-04-05 23:00:00 7.9 14 Sudoeste 40 Sudoeste 0 -- -- 84
2019-04-05 22:00:00 8.2 18 Sudoeste 49 Sudoeste 0 -- -- 83
2019-04-05 21:00:00 10.4 24 Sudoeste 42 Sudoeste 0 -- -- 72
2019-04-05 20:00:00 12 21 Sudoeste 46 Sudoeste 0 -- -- 54
2019-04-05 19:00:00 13.1 17 Sudoeste 46 Sudoeste 0.2 -- -- 59
2019-04-05 18:00:00 11.3 14 Sudoeste 38 Sudoeste 0 -- -- 70
2019-04-05 17:00:00 12 29 Sudoeste 49 Sudoeste 0.2 -- -- 65
2019-04-05 16:00:00 12.1 20 Sudoeste 36 Sudoeste 1.2 -- -- 74
2019-04-05 15:00:00 11 19 Oeste 37 Oeste 1 -- -- 81
2019-04-05 14:00:00 11.2 25 Sur 39 Sudoeste 0 -- -- 83
2019-04-05 13:00:00 10.9 19 Sudoeste 34 Sur 0 -- -- 87
2019-04-05 12:00:00 9.8 15 Sur 28 Sudeste 0 -- -- 89
2019-04-05 11:00:00 8.7 13 Sur 24 Sudeste 2.8 -- -- 94
2019-04-05 10:00:00 8.3 8 Sur 27 Sudoeste 2 -- -- 94
2019-04-05 09:00:00 9 17 Sudoeste 33 Oeste 2 -- -- 92
2019-04-05 08:00:00 9.9 10 Sur 21 Sur 0 -- -- 77
2019-04-05 07:00:00 10.2 10 Sur 22 Sur 0 -- -- 65
2019-04-05 06:00:00 9.9 10 Sudoeste 24 Sur 0 -- -- 66
2019-04-05 05:00:00 10.1 17 Sudoeste 31 Sur 0 -- -- 65
2019-04-05 04:00:00 10 14 Sudoeste 28 Sudoeste 0 -- -- 66
2019-04-05 03:00:00 9.9 17 Sudoeste 31 Sur 0 -- -- 67
2019-04-05 02:00:00 10.2 18 Sudoeste 33 Sur 0 -- -- 61
2019-04-05 01:00:00 10.2 14 Sudoeste 33 Sudoeste 0 -- -- 57
2019-04-05 00:00:00 10.9 19 Sudoeste 34 Sudoeste 0 -- -- 57
2019-04-04 23:00:00 11.9 17 Sudoeste 36 Sudoeste 0 -- -- 47
2019-04-04 22:00:00 13.2 14 Sudoeste 33 Sudoeste 0 -- -- 42
2019-04-04 21:00:00 14.9 15 Sudoeste 33 Sur 0 -- -- 39
2019-04-04 20:00:00 17.4 16 Sudoeste 33 Sudoeste 0 -- -- 28
2019-04-04 19:00:00 18.2 19 Sudoeste 35 Sudoeste 0 -- -- 28
2019-04-04 18:00:00 18.3 15 Sudoeste 36 Sudoeste 0 -- -- 29
2019-04-04 17:00:00 18.1 17 Sudoeste 35 Sudoeste 0 -- -- 31
2019-04-04 16:00:00 17.2 16 Sudoeste 30 Sur 0 -- -- 33
2019-04-04 15:00:00 16.4 14 Sudoeste 28 Sudoeste 0 -- -- 35
2019-04-04 14:00:00 15.7 12 Sudoeste 22 Sur 0 -- -- 36
2019-04-04 13:00:00 15 6 Sur 19 Sur 0 -- -- 37
2019-04-04 12:00:00 13.3 6 Sudoeste 11 Sur 0 -- -- 40
2019-04-04 11:00:00 11.3 3 Sudoeste 6 Sudoeste 0 -- -- 46
2019-04-04 10:00:00 9.7 0 Calma 5 Sudeste 0 -- -- 53
2019-04-04 09:00:00 6.2 2 Norte 4 Norte 0 -- -- 63
2019-04-04 08:00:00 4.5 2 Sur 8 Oeste 0 -- -- 66
2019-04-04 07:00:00 6 2 Noroeste 5 Noroeste 0 -- -- 62
2019-04-04 06:00:00 6.2 0 Calma 5 Oeste 0 -- -- 61
2019-04-04 05:00:00 6.5 0 Calma 4 Noroeste 0 -- -- 60
2019-04-04 04:00:00 8.1 0 Calma 8 Norte 0 -- -- 58
2019-04-04 03:00:00 8.9 0 Calma 4 Noroeste 0 -- -- 52
2019-04-04 02:00:00 10.8 3 Nordeste 13 Norte 0 -- -- 48
2019-04-04 01:00:00 11.8 10 Noroeste 14 Nordeste 0 -- -- 45
2019-04-04 00:00:00 12.8 10 Norte 17 Norte 0 -- -- 53
2019-04-03 23:00:00 14 7 Noroeste 19 Oeste 0 -- -- 52
2019-04-03 22:00:00 15.6 12 Noroeste 30 Oeste 0 -- -- 47
2019-04-03 21:00:00 17.8 15 Sudoeste 37 Sudoeste 0 -- -- 39
2019-04-03 20:00:00 20.1 20 Sudoeste 42 Sudoeste 0 -- -- 33
2019-04-03 19:00:00 21.3 22 Sudoeste 42 Sudoeste 0 -- -- 33
2019-04-03 18:00:00 21.5 22 Sudoeste 40 Oeste 0 -- -- 34
2019-04-03 17:00:00 21.6 23 Sudoeste 43 Sudoeste 0 -- -- 33
2019-04-03 16:00:00 21.5 22 Sudoeste 38 Sudoeste 0 -- -- 36
2019-04-03 15:00:00 21.3 17 Sudoeste 35 Oeste 0 -- -- 32
2019-04-03 14:00:00 20 13 Sudoeste 31 Oeste 0 -- -- 46
2019-04-03 13:00:00 18.7 8 Sudoeste 18 Oeste 0 -- -- 55
2019-04-03 12:00:00 17 4 Sudoeste 12 Sudoeste 0 -- -- 68
2019-04-03 11:00:00 15 4 Sudoeste 10 Sudoeste 0 -- -- 76
2019-04-03 10:00:00 12.5 2 Nordeste 3 Norte 0 -- -- 87
2019-04-03 09:00:00 10 0 Calma 3 Norte 0 -- -- 91
2019-04-03 08:00:00 9.4 0 Calma 4 Sur 0 -- -- 89
2019-04-03 07:00:00 9.9 0 Calma 4 Sudoeste 0 -- -- 86
2019-04-03 06:00:00 10.3 4 Sur 7 Sur 0 -- -- 85
2019-04-03 05:00:00 10.4 4 Sur 5 Sur 0 -- -- 84
2019-04-03 04:00:00 11.1 6 Sudoeste 8 Sudoeste 0 -- -- 80
2019-04-03 03:00:00 12 5 Sur 9 Sur 0 -- -- 77
2019-04-03 02:00:00 12.7 6 Sur 10 Sur 0 -- -- 74
2019-04-03 01:00:00 13.4 3 Sudoeste 6 Sur 0 -- -- 73
2019-04-03 00:00:00 14.4 3 Sur 6 Sudoeste 0 -- -- 67
2019-04-02 23:00:00 15.2 3 Sur 8 Sur 0 -- -- 65
2019-04-02 22:00:00 16 5 Sudoeste 15 Sudoeste 0 -- -- 63
2019-04-02 21:00:00 17.7 8 Sudoeste 18 Sur 0 -- -- 57
2019-04-02 20:00:00 19.6 10 Sudoeste 19 Sudoeste 0 -- -- 49
2019-04-02 19:00:00 20.9 10 Sudoeste 21 Oeste 0 -- -- 44
2019-04-02 18:00:00 21 8 Sur 22 Oeste 0 -- -- 44
2019-04-02 17:00:00 20.6 10 Sudoeste 17 Sur 0 -- -- 45
2019-04-02 16:00:00 20.3 6 Sur 14 Sur 0 -- -- 53
2019-04-02 15:00:00 18.2 6 Noroeste 21 Noroeste 0 -- -- 59
2019-04-02 14:00:00 16.9 5 Noroeste 18 Oeste 0 -- -- 65
2019-04-02 13:00:00 17.2 3 Sur 16 Sur 0 -- -- 64
2019-04-02 12:00:00 16 5 Este 12 Sudeste 0 -- -- 72
2019-04-02 11:00:00 14.7 4 Sudoeste 12 Sudeste 0 -- -- 76
2019-04-02 10:00:00 12.1 3 Este 5 Sudeste 0 -- -- 96
2019-04-02 09:00:00 10.7 0 Calma 6 Oeste 0 -- -- 97
2019-04-02 08:00:00 10 0 Calma 4 Este 0 -- -- 98
2019-04-02 07:00:00 9 2 Este 4 Sudeste 0 -- -- 97
2019-04-02 06:00:00 9.7 2 Norte 5 Noroeste 0 -- -- 97
2019-04-02 05:00:00 9.5 5 Norte 8 Norte 0 -- -- 95
2019-04-02 04:00:00 10.2 3 Sudeste 5 Sudeste 0 -- -- 93
2019-04-02 03:00:00 10 4 Norte 9 Sur 0 -- -- 93
2019-04-02 02:00:00 11.8 8 Sur 10 Sur 0 -- -- 89
2019-04-02 01:00:00 11.8 0 Calma 6 Sudoeste 0 -- -- 88
2019-04-02 00:00:00 12.4 4 Sudoeste 8 Sur 0 -- -- 86
2019-04-01 23:00:00 12.5 4 Sudoeste 8 Sur 0 -- -- 86
2019-04-01 22:00:00 12.9 6 Sudoeste 14 Sudoeste 0 -- -- 84
2019-04-01 21:00:00 13.9 7 Sudoeste 24 Sur 0 -- -- 80
2019-04-01 20:00:00 15.4 10 Sudoeste 23 Sudoeste 0 -- -- 75
2019-04-01 19:00:00 16.7 12 Sur 23 Sur 0 -- -- 68
2019-04-01 18:00:00 15.7 12 Sur 28 Sur 0 -- -- 71
2019-04-01 17:00:00 17.1 15 Sudoeste 26 Sur 0 -- -- 65
2019-04-01 16:00:00 16.1 9 Sudoeste 16 Sudoeste 0 -- -- 71
2019-04-01 15:00:00 13.7 9 Sudoeste 37 Sudoeste 0.4 -- -- 86
2019-04-01 14:00:00 19 11 Sudoeste 25 Sudoeste 0 -- -- 57
2019-04-01 13:00:00 18.4 6 Sur 17 Sudoeste 0 -- -- 61
2019-04-01 12:00:00 16.9 5 Sur 11 Sudoeste 0 -- -- 68
2019-04-01 11:00:00 15.5 2 Sudoeste 5 Nordeste 0 -- -- 77
2019-04-01 10:00:00 13.4 3 Nordeste 5 Nordeste 0 -- -- 90
2019-04-01 09:00:00 11.4 0 Calma 5 Nordeste 0 -- -- 95
2019-04-01 08:00:00 11.3 2 Este 6 Nordeste 0 -- -- 94
2019-04-01 07:00:00 11.3 2 Nordeste 5 Nordeste 0 -- -- 95
2019-04-01 06:00:00 11.6 0 Calma 4 Sudoeste 0.6 -- -- 94
2019-04-01 05:00:00 11.7 0 Calma 4 Sudeste 0 -- -- 92
2019-04-01 04:00:00 12 2 Sur 12 Sudoeste 0 -- -- 91
2019-04-01 03:00:00 12.1 5 Sudoeste 11 Sudoeste 0 -- -- 90
2019-04-01 02:00:00 12.1 3 Oeste 5 Sudoeste 0 -- -- 91
2019-04-01 01:00:00 12.6 3 Sudeste 23 Sudoeste 0 -- -- 89
2019-04-01 00:00:00 13.1 11 Sudoeste 18 Sudoeste 0 -- -- 85
2019-03-31 23:00:00 12.6 5 Este 15 Nordeste 0 -- -- 84
2019-03-31 22:00:00 12.9 11 Nordeste 15 Nordeste 0 -- -- 82
2019-03-31 21:00:00 14.6 7 Nordeste 12 Nordeste 0 -- -- 75
2019-03-31 20:00:00 16.9 9 Este 14 Este 0 -- -- 65
2019-03-31 19:00:00 17.8 9 Este 21 Nordeste 0 -- -- 60
2019-03-31 18:00:00 17.5 12 Nordeste 22 Nordeste 0 -- -- 64
2019-03-31 17:00:00 16.8 14 Nordeste 22 Este 0 -- -- 69
2019-03-31 16:00:00 17.1 6 Nordeste 12 Nordeste 0 -- -- 67
2019-03-31 15:00:00 16.8 6 Sudeste 14 Nordeste 0 -- -- 71
2019-03-31 14:00:00 15 8 Nordeste 17 Noroeste 0 -- -- 85
2019-03-31 13:00:00 13.8 5 Norte 11 Norte 0 -- -- 89
2019-03-31 12:00:00 13 7 Este 11 Nordeste 0.8 -- -- 90
2019-03-31 11:00:00 12.3 4 Nordeste 12 Nordeste 0.6 -- -- 95
2019-03-31 10:00:00 11.8 2 Norte 19 Este 1.2 -- -- 95
2019-03-31 09:00:00 11.6 10 Nordeste 15 Nordeste 0.8 -- -- 94
2019-03-31 08:00:00 11.6 8 Nordeste 13 Este 0.4 -- -- 93
2019-03-31 07:00:00 11.8 6 Este 13 Nordeste 0.6 -- -- 91
2019-03-31 06:00:00 12.1 7 Este 10 Este 0.2 -- -- 88
2019-03-31 05:00:00 12.5 5 Este 8 Nordeste 0 -- -- 82
2019-03-31 03:00:00 13.8 0 Calma 10 Sudoeste 0 -- -- 68
2019-03-31 01:00:00 14.1 7 Sudoeste 16 Oeste 0 -- -- 66
2019-03-31 00:00:00 14.2 6 Noroeste 15 Oeste 0 -- -- 65
2019-03-30 23:00:00 14.2 5 Noroeste 16 Oeste 0 -- -- 65
2019-03-30 22:00:00 14.8 3 Oeste 18 Oeste 0 -- -- 63
2019-03-30 21:00:00 15.3 9 Sudoeste 23 Sur 0 -- -- 61
2019-03-30 20:00:00 16.3 13 Sudoeste 29 Sudoeste 0 -- -- 57
2019-03-30 19:00:00 18.7 18 Sudoeste 33 Sudoeste 0 -- -- 49
2019-03-30 18:00:00 22.6 14 Sudoeste 28 Sudoeste 0 -- -- 38
2019-03-30 17:00:00 23.5 6 Sudoeste 16 Sudoeste 0 -- -- 31
2019-03-30 16:00:00 22.8 5 Nordeste 17 Sudeste 0 -- -- 32
2019-03-30 15:00:00 22.2 9 Oeste 15 Norte 0 -- -- 32
2019-03-30 14:00:00 21.2 8 Nordeste 20 Nordeste 0 -- -- 33
2019-03-30 13:00:00 19.9 8 Nordeste 20 Este 0 -- -- 35
2019-03-30 12:00:00 18.3 10 Nordeste 19 Nordeste 0 -- -- 38
2019-03-30 11:00:00 16.6 9 Nordeste 18 Norte 0 -- -- 43
2019-03-30 10:00:00 14.2 8 Este 20 Nordeste 0 -- -- 50
2019-03-30 09:00:00 11.2 10 Nordeste 17 Nordeste 0 -- -- 63
2019-03-30 08:00:00 8.6 6 Nordeste 10 Norte 0 -- -- 78
2019-03-30 07:00:00 7.9 4 Norte 10 Este 0 -- -- 80
2019-03-30 06:00:00 8.8 5 Nordeste 11 Nordeste 0 -- -- 78
2019-03-30 05:00:00 9 8 Este 12 Nordeste 0 -- -- 74
2019-03-30 04:00:00 9 7 Norte 10 Norte 0 -- -- 75
2019-03-30 03:00:00 9.5 5 Nordeste 8 Nordeste 0 -- -- 74
2019-03-30 02:00:00 9.6 4 Norte 10 Norte 0 -- -- 71
2019-03-30 01:00:00 10.3 4 Norte 6 Norte 0 -- -- 67
2019-03-30 00:00:00 11.5 0 Calma 5 Este 0 -- -- 66
2019-03-29 23:00:00 12.9 2 Sudoeste 13 Sudoeste 0 -- -- 62
2019-03-29 22:00:00 14.5 6 Sudoeste 15 Sudoeste 0 -- -- 57
2019-03-29 21:00:00 15.3 8 Sudoeste 21 Sudoeste 0 -- -- 54
2019-03-29 20:00:00 16.4 10 Sudoeste 27 Sudoeste 0 -- -- 50
2019-03-29 19:00:00 18.1 16 Sudoeste 31 Sudoeste 0 -- -- 44
2019-03-29 18:00:00 20.5 13 Sudoeste 21 Sudoeste 0 -- -- 36
2019-03-29 17:00:00 20.9 12 Sudoeste 22 Sudoeste 0 -- -- 28
2019-03-29 16:00:00 22 10 Sudoeste 22 Sudeste 0 -- -- 23
2019-03-29 15:00:00 21.3 6 Oeste 23 Sudoeste 0 -- -- 24
2019-03-29 14:00:00 20.5 10 Sur 23 Sudeste 0 -- -- 24
2019-03-29 13:00:00 18.8 7 Nordeste 21 Este 0 -- -- 26
2019-03-29 12:00:00 16.9 9 Nordeste 17 Nordeste 0 -- -- 30
2019-03-29 11:00:00 14.1 7 Nordeste 14 Este 0 -- -- 36
2019-03-29 10:00:00 12.2 12 Nordeste 20 Nordeste 0 -- -- 37
2019-03-29 09:00:00 10.4 10 Nordeste 16 Nordeste 0 -- -- 42
2019-03-29 08:00:00 6.9 9 Nordeste 15 Nordeste 0 -- -- 54
2019-03-29 07:00:00 5 8 Nordeste 10 Nordeste 0 -- -- 62
2019-03-29 06:00:00 4.7 0 Calma 4 Norte 0 -- -- 70
2019-03-29 05:00:00 4.6 2 Norte 8 Este 0 -- -- 68
2019-03-29 04:00:00 5.7 2 Sudeste 10 Sur 0 -- -- 65
2019-03-29 03:00:00 6.9 0 Calma 6 Este 0 -- -- 64
2019-03-29 02:00:00 8.4 4 Nordeste 6 Norte 0 -- -- 59
2019-03-29 01:00:00 8.9 5 Nordeste 8 Nordeste 0 -- -- 55
2019-03-29 00:00:00 9.6 2 Norte 9 Norte 0 -- -- 53
2019-03-28 23:00:00 9.8 8 Norte 11 Norte 0 -- -- 51
2019-03-28 22:00:00 12.4 5 Sudoeste 15 Sudoeste 0 -- -- 46
2019-03-28 21:00:00 14.2 8 Sudoeste 15 Sudoeste 0 -- -- 41
2019-03-28 20:00:00 16.4 10 Sudoeste 32 Sudoeste 0 -- -- 32
2019-03-28 19:00:00 21.9 2 Noroeste 13 Este 0 -- -- 19
2019-03-28 18:00:00 22 4 Sudeste 19 Este 0 -- -- 16
2019-03-28 17:00:00 21.8 3 Nordeste 21 Este 0 -- -- 17
2019-03-28 16:00:00 21.3 7 Sudeste 29 Este 0 -- -- 17
2019-03-28 15:00:00 20.1 5 Este 24 Este 0 -- -- 20
2019-03-28 14:00:00 19.2 13 Nordeste 25 Este 0 -- -- 21
2019-03-28 13:00:00 18.2 13 Nordeste 24 Nordeste 0 -- -- 23
2019-03-28 12:00:00 16.3 10 Nordeste 25 Este 0 -- -- 25
2019-03-28 11:00:00 16.3 9 Sudeste 23 Este 0 -- -- 29
2019-03-28 10:00:00 13 12 Este 20 Este 0 -- -- 38
2019-03-28 09:00:00 9.8 10 Nordeste 21 Nordeste 0 -- -- 50
2019-03-28 08:00:00 6.5 12 Nordeste 15 Nordeste 0 -- -- 69
2019-03-28 07:00:00 6 9 Nordeste 14 Nordeste 0 -- -- 76
2019-03-28 06:00:00 5.5 4 Nordeste 9 Nordeste 0 -- -- 81
2019-03-28 05:00:00 7.1 2 Este 7 Nordeste 0 -- -- 74
2019-03-28 04:00:00 7.8 5 Nordeste 12 Este 0 -- -- 76
2019-03-28 03:00:00 8.1 8 Nordeste 10 Nordeste 0 -- -- 75
2019-03-28 02:00:00 8.8 3 Nordeste 8 Norte 0 -- -- 72
2019-03-28 01:00:00 8.8 4 Norte 6 Norte 0 -- -- 74
2019-03-28 00:00:00 10.5 2 Noroeste 9 Oeste 0 -- -- 67
2019-03-27 23:00:00 11.9 6 Sudoeste 15 Oeste 0 -- -- 61
2019-03-27 22:00:00 12.7 7 Sudoeste 14 Sur 0 -- -- 57
2019-03-27 21:00:00 14.5 9 Sudoeste 26 Sudoeste 0 -- -- 47
2019-03-27 20:00:00 16.9 11 Sudoeste 22 Sudoeste 0 -- -- 38
2019-03-27 19:00:00 19.8 10 Nordeste 20 Nordeste 0 -- -- 23
2019-03-27 18:00:00 20.8 12 Nordeste 26 Nordeste 0 -- -- 20
2019-03-27 17:00:00 21.2 14 Nordeste 30 Este 0 -- -- 21
2019-03-27 16:00:00 20.9 17 Nordeste 33 Este 0 -- -- 22
2019-03-27 15:00:00 20.2 17 Nordeste 43 Este 0 -- -- 21
2019-03-27 14:00:00 19.3 19 Nordeste 37 Nordeste 0 -- -- 23
2019-03-27 13:00:00 18.2 23 Nordeste 38 Este 0 -- -- 25
2019-03-27 12:00:00 17.5 24 Este 39 Este 0 -- -- 26
2019-03-27 11:00:00 16.2 23 Nordeste 45 Nordeste 0 -- -- 29
2019-03-27 10:00:00 14.5 22 Nordeste 34 Nordeste 0 -- -- 34
2019-03-27 09:00:00 11.2 14 Nordeste 20 Este 0 -- -- 45
2019-03-27 08:00:00 8.3 11 Nordeste 16 Nordeste 0 -- -- 51
2019-03-27 07:00:00 7.4 10 Este 17 Este 0 -- -- 60
2019-03-27 06:00:00 8.7 5 Nordeste 11 Nordeste 0 -- -- 52
2019-03-27 05:00:00 8.7 0 Calma 8 Norte 0 -- -- 61
2019-03-27 04:00:00 8.7 6 Norte 13 Norte 0 -- -- 64
2019-03-27 03:00:00 9.9 3 Norte 7 Sudoeste 0 -- -- 62
2019-03-27 02:00:00 11.6 3 Norte 6 Nordeste 0 -- -- 54
2019-03-27 01:00:00 12.6 3 Este 6 Este 0 -- -- 53
2019-03-27 00:00:00 12.8 5 Este 10 Nordeste 0 -- -- 50
2019-03-26 23:00:00 15 4 Este 9 Norte 0 -- -- 49
2019-03-26 22:00:00 16 6 Nordeste 11 Norte 0 -- -- 51
2019-03-26 21:00:00 16.6 5 Norte 13 Oeste 0 -- -- 50
2019-03-26 20:00:00 18.9 6 Sudoeste 19 Sudoeste 0 -- -- 45
2019-03-26 19:00:00 22.5 10 Sudoeste 23 Sudeste 0 -- -- 35
2019-03-26 18:00:00 24.9 16 Sudeste 27 Sudeste 0 -- -- 24
2019-03-26 17:00:00 26.6 6 Sudeste 27 Este 0 -- -- 21
2019-03-26 16:00:00 26.2 10 Este 30 Sudeste 0 -- -- 21
2019-03-26 15:00:00 25.5 11 Nordeste 31 Este 0 -- -- 20
2019-03-26 14:00:00 24.5 9 Este 24 Nordeste 0 -- -- 20
2019-03-26 13:00:00 22.9 14 Nordeste 26 Nordeste 0 -- -- 23
2019-03-26 12:00:00 21.7 12 Nordeste 23 Nordeste 0 -- -- 27
2019-03-26 11:00:00 19.7 17 Nordeste 24 Nordeste 0 -- -- 30
2019-03-26 10:00:00 16.4 11 Este 20 Nordeste 0 -- -- 39
2019-03-26 09:00:00 13.8 10 Nordeste 23 Nordeste 0 -- -- 49
2019-03-26 08:00:00 11.1 11 Nordeste 17 Nordeste 0 -- -- 57
2019-03-26 07:00:00 9.7 9 Norte 14 Norte 0 -- -- 62
2019-03-26 06:00:00 11.4 7 Nordeste 13 Nordeste 0 -- -- 56
2019-03-26 05:00:00 10.2 8 Norte 13 Nordeste 0 -- -- 61
2019-03-26 04:00:00 10.9 8 Nordeste 12 Nordeste 0 -- -- 61
2019-03-26 03:00:00 10.7 0 Calma 4 Sudeste 0 -- -- 65
2019-03-26 02:00:00 11.8 2 Este 5 Nordeste 0 -- -- 62
2019-03-26 01:00:00 12.9 5 Nordeste 8 Norte 0 -- -- 60
2019-03-26 00:00:00 13.4 4 Norte 10 Norte 0 -- -- 60
2019-03-25 23:00:00 14.6 5 Norte 9 Norte 0 -- -- 56
2019-03-25 22:00:00 16.9 5 Sudoeste 19 Sudoeste 0 -- -- 50
2019-03-25 21:00:00 18.1 8 Sudoeste 14 Sudoeste 0 -- -- 40
2019-03-25 20:00:00 20.5 7 Nordeste 19 Norte 0 -- -- 33
2019-03-25 19:00:00 22.8 11 Nordeste 22 Nordeste 0 -- -- 30
2019-03-25 18:00:00 23.7 14 Nordeste 23 Nordeste 0 -- -- 29
2019-03-25 17:00:00 23.9 12 Nordeste 27 Nordeste 0 -- -- 30
2019-03-25 16:00:00 23.6 14 Este 30 Nordeste 0 -- -- 29
2019-03-25 15:00:00 23.2 10 Nordeste 30 Este 0 -- -- 31
2019-03-25 14:00:00 22.3 15 Nordeste 31 Este 0 -- -- 30
2019-03-25 13:00:00 21.2 17 Nordeste 36 Nordeste 0 -- -- 31
2019-03-25 12:00:00 19.7 23 Nordeste 33 Nordeste 0 -- -- 36
2019-03-25 11:00:00 17.3 17 Este 26 Este 0 -- -- 43
2019-03-25 10:00:00 14.7 7 Nordeste 17 Norte 0 -- -- 52
2019-03-25 09:00:00 11.6 6 Norte 14 Nordeste 0 -- -- 62
2019-03-25 08:00:00 9.5 5 Nordeste 12 Nordeste 0 -- -- 69
2019-03-25 07:00:00 8.6 7 Nordeste 9 Nordeste 0 -- -- 71
2019-03-25 06:00:00 8.8 6 Nordeste 13 Nordeste 0 -- -- 70
2019-03-25 05:00:00 9.5 10 Nordeste 12 Nordeste 0 -- -- 69
2019-03-25 04:00:00 9.6 8 Nordeste 11 Nordeste 0 -- -- 69
2019-03-25 03:00:00 10.1 2 Nordeste 6 Norte 0 -- -- 65
2019-03-25 02:00:00 11.4 4 Nordeste 5 Nordeste 0 -- -- 64
2019-03-25 01:00:00 12.7 2 Oeste 4 Noroeste 0 -- -- 60
2019-03-25 00:00:00 12.6 3 Oeste 6 Este 0 -- -- 60
2019-03-24 23:00:00 13.1 3 Este 9 Norte 0 -- -- 55
2019-03-24 22:00:00 14.9 3 Norte 5 Este 0 -- -- 52
2019-03-24 21:00:00 16.7 2 Este 5 Este 0 -- -- 48
2019-03-24 20:00:00 18.5 0 Calma 8 Noroeste 0 -- -- 44
2019-03-24 19:00:00 19.8 6 Noroeste 13 Noroeste 0 -- -- 40
2019-03-24 18:00:00 20.4 6 Noroeste 15 Norte 0 -- -- 38
2019-03-24 17:00:00 19.3 6 Norte 12 Nordeste 0 -- -- 42
2019-03-24 16:00:00 19 9 Nordeste 20 Este 0 -- -- 41
2019-03-24 15:00:00 19.2 8 Nordeste 20 Este 0 -- -- 43
2019-03-24 14:00:00 19 10 Este 24 Este 0 -- -- 41
2019-03-24 13:00:00 18.5 13 Este 21 Este 0 -- -- 42
2019-03-24 12:00:00 17.6 12 Este 25 Este 0 -- -- 44
2019-03-24 11:00:00 16.9 12 Nordeste 22 Este 0 -- -- 47
2019-03-24 10:00:00 15.4 10 Nordeste 17 Nordeste 0 -- -- 51
2019-03-24 09:00:00 11.4 10 Nordeste 13 Nordeste 0 -- -- 65
2019-03-24 08:00:00 10.5 4 Nordeste 11 Nordeste 0 -- -- 66
2019-03-24 07:00:00 10.5 6 Nordeste 16 Este 0 -- -- 67
2019-03-24 06:00:00 10.9 10 Este 17 Nordeste 0 -- -- 66
2019-03-24 05:00:00 10.3 3 Nordeste 12 Nordeste 0 -- -- 69
2019-03-24 04:00:00 10.1 7 Nordeste 12 Norte 0 -- -- 69
2019-03-24 03:00:00 9.6 3 Norte 7 Noroeste 0 -- -- 69
2019-03-24 02:00:00 10.4 6 Este 16 Nordeste 0 -- -- 65
2019-03-24 01:00:00 12.2 12 Nordeste 26 Este 0 -- -- 60
2019-03-24 00:00:00 12.3 2 Este 23 Nordeste 0 -- -- 60
2019-03-23 23:00:00 13.2 18 Este 28 Este 0 -- -- 56
2019-03-23 22:00:00 14 17 Este 38 Nordeste 0 -- -- 53
2019-03-23 21:00:00 15.4 18 Este 36 Nordeste 0 -- -- 46
2019-03-23 20:00:00 15.8 20 Nordeste 35 Nordeste 0 -- -- 45
2019-03-23 19:00:00 17.5 26 Nordeste 45 Nordeste 0 -- -- 42
2019-03-23 18:00:00 19.3 31 Nordeste 48 Este 0 -- -- 35
2019-03-23 17:00:00 20.8 31 Nordeste 45 Nordeste 0 -- -- 31
2019-03-23 16:00:00 21.9 18 Este 41 Este 0 -- -- 28
2019-03-23 15:00:00 21 13 Nordeste 35 Nordeste 0 -- -- 31
2019-03-23 14:00:00 20.1 15 Nordeste 36 Este 0 -- -- 36
2019-03-23 13:00:00 19.2 16 Nordeste 33 Nordeste 0 -- -- 36
2019-03-23 12:00:00 17.9 18 Nordeste 33 Nordeste 0 -- -- 41
2019-03-23 11:00:00 16.8 23 Nordeste 33 Nordeste 0 -- -- 46
2019-03-23 10:00:00 14.4 25 Nordeste 35 Nordeste 0 -- -- 52
2019-03-23 09:00:00 12.9 21 Nordeste 32 Nordeste 0 -- -- 58
2019-03-23 08:00:00 9.2 6 Este 21 Nordeste 0 -- -- 67
2019-03-23 07:00:00 9 10 Nordeste 19 Nordeste 0 -- -- 67
2019-03-23 06:00:00 8.4 4 Sudoeste 14 Nordeste 0 -- -- 67
2019-03-23 05:00:00 8.2 2 Nordeste 8 Nordeste 0 -- -- 67
2019-03-23 04:00:00 8.7 3 Este 7 Nordeste 0 -- -- 67
2019-03-23 03:00:00 9.1 2 Nordeste 9 Sudeste 0 -- -- 64
2019-03-23 02:00:00 8.9 3 Nordeste 9 Este 0 -- -- 68
2019-03-23 01:00:00 9.6 4 Norte 9 Nordeste 0 -- -- 67
2019-03-23 00:00:00 9.8 5 Norte 9 Norte 0 -- -- 66
2019-03-22 23:00:00 11.8 2 Oeste 9 Sudoeste 0 -- -- 60
2019-03-22 22:00:00 13.3 6 Sudoeste 17 Sudoeste 0 -- -- 56
2019-03-22 21:00:00 14.2 8 Sudoeste 15 Sur 0 -- -- 39
2019-03-22 20:00:00 15.9 6 Este 13 Este 0 -- -- 29
2019-03-22 19:00:00 19 11 Este 18 Este 0 -- -- 25
2019-03-22 18:00:00 20.2 9 Norte 17 Nordeste 0 -- -- 24
2019-03-22 17:00:00 20 9 Nordeste 23 Nordeste 0 -- -- 23
2019-03-22 16:00:00 19.8 8 Este 24 Nordeste 0 -- -- 24
2019-03-22 15:00:00 19.5 7 Norte 24 Nordeste 0 -- -- 24
2019-03-22 14:00:00 18.1 9 Norte 22 Nordeste 0 -- -- 26
2019-03-22 13:00:00 17.6 11 Este 22 Nordeste 0 -- -- 27
2019-03-22 12:00:00 15.8 11 Este 20 Nordeste 0 -- -- 33
2019-03-22 11:00:00 13.4 13 Este 26 Este 0 -- -- 41
2019-03-22 10:00:00 10.9 10 Este 22 Este 0 -- -- 48
2019-03-22 09:00:00 7 8 Nordeste 11 Nordeste 0 -- -- 63
2019-03-22 08:00:00 4.9 6 Nordeste 10 Nordeste 0 -- -- 73
2019-03-22 07:00:00 4.9 2 Norte 19 Nordeste 0 -- -- 70
2019-03-22 06:00:00 5.7 12 Nordeste 18 Nordeste 0 -- -- 70
2019-03-22 05:00:00 5.2 6 Nordeste 8 Nordeste 0 -- -- 76
2019-03-22 04:00:00 5.6 0 Calma 2 Sudoeste 0 -- -- 76
2019-03-22 03:00:00 6.5 0 Calma 6 Nordeste 0 -- -- 71
2019-03-22 02:00:00 7 3 Nordeste 8 Nordeste 0 -- -- 69
2019-03-22 01:00:00 7.2 3 Nordeste 9 Nordeste 0 -- -- 66
2019-03-22 00:00:00 8.1 5 Norte 12 Norte 0 -- -- 64
2019-03-21 23:00:00 10.2 5 Oeste 15 Sur 0 -- -- 58
2019-03-21 22:00:00 11.4 10 Sur 13 Sur 0 -- -- 55
2019-03-21 21:00:00 12.7 10 Sur 19 Sudoeste 0 -- -- 48
2019-03-21 20:00:00 14.9 4 Norte 15 Nordeste 0 -- -- 29
2019-03-21 19:00:00 17 12 Nordeste 20 Este 0 -- -- 25
2019-03-21 18:00:00 18.1 5 Nordeste 23 Nordeste 0 -- -- 25
2019-03-21 17:00:00 18 9 Nordeste 30 Nordeste 0 -- -- 23
2019-03-21 16:00:00 17.8 19 Nordeste 34 Nordeste 0 -- -- 23
2019-03-21 15:00:00 17.4 17 Nordeste 35 Nordeste 0 -- -- 24
2019-03-21 14:00:00 17 15 Nordeste 31 Este 0 -- -- 27
2019-03-21 13:00:00 16.1 18 Este 32 Nordeste 0 -- -- 28
2019-03-21 12:00:00 14.7 20 Nordeste 33 Nordeste 0 -- -- 33
2019-03-21 11:00:00 13.6 22 Nordeste 33 Nordeste 0 -- -- 35
2019-03-21 10:00:00 11.7 12 Nordeste 24 Este 0 -- -- 50
2019-03-21 09:00:00 8.7 16 Nordeste 23 Este 0 -- -- 65
2019-03-21 08:00:00 5.6 10 Nordeste 14 Nordeste 0 -- -- 78
2019-03-21 07:00:00 5.4 5 Nordeste 13 Nordeste 0 -- -- 77
2019-03-21 06:00:00 6.4 10 Nordeste 13 Nordeste 0 -- -- 77
2019-03-21 05:00:00 6.5 0 Calma 11 Nordeste 0 -- -- 77
2019-03-21 04:00:00 7 6 Este 14 Nordeste 0 -- -- 76
2019-03-21 03:00:00 6.8 10 Nordeste 13 Nordeste 0 -- -- 74
2019-03-21 02:00:00 7.5 5 Nordeste 9 Nordeste 0 -- -- 74
2019-03-21 01:00:00 8.3 5 Nordeste 8 Norte 0 -- -- 72
2019-03-21 00:00:00 8.6 4 Norte 13 Nordeste 0 -- -- 70